Terminal Aerodrome Forecast
Issued by NWS Jackson, MS

Home | Current Version | Previous Version | Text Only | Print | Product List | Glossary On
Versions: 1 2 3 4 5 6 7 8 9 10 11 12 13 14 15 16
000
FTUS44 KMEG 300522
TAFTUP
TAF
KTUP 300522Z 3006/3106 21010KT P6SM VCTS OVC070CB
      TEMPO 3006/3009 VRB10G25KT 2SM -TSRA BKN025 OVC040CB
     FM300900 35006KT P6SM -SHRA BKN040
     FM301100 02005KT P6SM BKN100
     FM301300 03005KT P6SM SKC
     FM301900 04003KT P6SM SKC
     FM310100 00000KT P6SM SCT150=

USA.gov is the U.S. government's official web portal to all federal, state and local government web resources and services.